Time;durP1;ratioP1;P1;durP2;ratioP2;P2;SDS_P1;SDS_P2;PMS_P1;PMS_P2;Temp;Humidity;BMP_temperature;BMP_pressure;BME280_temperature;BME280_humidity;BME280_pressure;Samples;Min_cycle;Max_cycle;Signal;HPM_P1;HPM_P2
2021/08/02 00:00:47;;;;;;;45.57;42.13;;;;;;;15.02;100.00;101509.20;1934754;74;26679;-74
2021/08/02 00:03:23;;;;;;;46.83;43.27;;;;;;;15.00;100.00;101507.29;1934717;74;26216;-76
2021/08/02 00:05:55;;;;;;;47.90;44.30;;;;;;;15.06;100.00;101510.03;1934425;74;26268;-76
2021/08/02 00:11:20;;;;;;;47.30;43.73;;;;;;;15.14;100.00;101506.00;1972151;73;33554;-73
2021/08/02 00:16:39;;;;;;;46.77;42.90;;;;;;;15.04;100.00;101504.72;1977655;72;32854;-76
2021/08/02 00:22:06;;;;;;;48.70;45.00;;;;;;;14.86;100.00;101502.70;1951378;72;30980;-75
2021/08/02 00:27:32;;;;;;;48.30;44.63;;;;;;;14.94;100.00;101511.27;1971885;73;32924;-76
2021/08/02 00:32:58;;;;;;;47.30;43.73;;;;;;;15.02;100.00;101517.59;1971897;73;32966;-78
2021/08/02 00:38:46;;;;;;;48.13;44.10;;;;;;;15.20;100.00;101514.58;1971888;72;32913;-74
2021/08/02 00:41:43;;;;;;;46.27;42.67;;;;;;;15.13;100.00;101527.28;1934744;74;26270;-76
2021/08/02 00:45:01;;;;;;;46.87;43.23;;;;;;;14.90;100.00;101524.75;1934685;74;26268;-73
2021/08/02 00:50:29;;;;;;;48.03;44.33;;;;;;;15.06;100.00;101514.22;1971922;73;32972;-73
2021/08/02 00:55:58;;;;;;;49.43;45.37;;;;;;;14.93;100.00;101517.98;1971887;73;32983;-73
2021/08/02 01:01:26;;;;;;;47.83;44.13;;;;;;;14.81;100.00;101509.19;1972081;72;32978;-78
2021/08/02 01:06:53;;;;;;;49.37;45.47;;;;;;;14.61;100.00;101505.23;1972112;72;33076;-73
2021/08/02 01:12:20;;;;;;;46.20;42.70;;;;;;;14.75;100.00;101507.59;1971918;73;32944;-73
2021/08/02 01:17:46;;;;;;;48.47;44.83;;;;;;;14.50;100.00;101511.48;1971865;73;32979;-78
2021/08/02 01:23:14;;;;;;;48.80;45.20;;;;;;;14.43;100.00;101515.20;1972083;73;33049;-77
2021/08/02 01:26:22;;;;;;;50.60;46.90;;;;;;;14.32;100.00;101517.80;1935125;74;26237;-77
2021/08/02 01:29:26;;;;;;;49.87;45.97;;;;;;;14.29;100.00;101522.56;1932561;74;26255;-75
2021/08/02 01:34:51;;;;;;;47.17;43.53;;;;;;;14.31;100.00;101514.73;1972292;73;32971;-74
2021/08/02 01:40:15;;;;;;;47.63;43.83;;;;;;;14.49;100.00;101511.23;1971903;73;32983;-73
2021/08/02 01:45:43;;;;;;;48.10;44.40;;;;;;;14.54;100.00;101515.94;1971847;73;32922;-76
2021/08/02 01:48:18;;;;;;;47.57;43.83;;;;;;;14.41;100.00;101520.27;1934727;74;26200;-76
2021/08/02 01:50:52;;;;;;;47.43;43.63;;;;;;;14.39;100.00;101521.67;1934729;74;26682;-76
2021/08/02 01:53:26;;;;;;;46.87;43.43;;;;;;;14.54;100.00;101525.73;1934884;74;26204;-74
2021/08/02 01:56:01;;;;;;;46.63;43.20;;;;;;;14.41;100.00;101519.43;1934648;74;26666;-76
2021/08/02 02:01:28;;;;;;;47.27;43.53;;;;;;;14.58;100.00;101515.05;1971862;72;33080;-74
2021/08/02 02:06:57;;;;;;;47.23;43.73;;;;;;;14.47;100.00;101518.23;1972122;72;33479;-73
2021/08/02 02:12:22;;;;;;;46.43;42.70;;;;;;;14.53;100.00;101517.91;1971925;73;33077;-76
2021/08/02 02:17:49;;;;;;;47.03;43.33;;;;;;;14.55;100.00;101518.98;1972096;72;32947;-76
2021/08/02 02:23:16;;;;;;;48.43;44.73;;;;;;;14.26;100.00;101513.38;1972115;73;33474;-74
2021/08/02 02:28:48;;;;;;;50.20;46.20;;;;;;;14.35;100.00;101511.65;1972003;73;33433;-76
2021/08/02 02:34:16;;;;;;;49.30;45.40;;;;;;;14.56;100.00;101523.45;1972104;73;32917;-76
2021/08/02 02:39:43;;;;;;;48.10;44.30;;;;;;;14.43;100.00;101522.19;1972140;73;33483;-79
2021/08/02 02:45:09;;;;;;;48.30;44.43;;;;;;;14.18;100.00;101514.57;1971884;73;32968;-77
2021/08/02 02:50:36;;;;;;;48.07;44.27;;;;;;;14.17;100.00;101514.30;1971907;73;33003;-73
2021/08/02 02:56:08;;;;;;;47.73;44.03;;;;;;;14.21;100.00;101510.63;1971882;73;32916;-74
2021/08/02 03:01:34;;;;;;;47.20;43.60;;;;;;;14.27;100.00;101519.80;1972099;73;33438;-73
2021/08/02 03:07:02;;;;;;;49.27;45.63;;;;;;;14.25;100.00;101530.45;1971924;73;32995;-73
2021/08/02 03:12:35;;;;;;;47.80;44.13;;;;;;;14.32;100.00;101522.00;1972107;73;33463;-76
2021/08/02 03:18:01;;;;;;;49.10;45.27;;;;;;;14.49;100.00;101528.56;1971916;73;32945;-75
2021/08/02 03:23:29;;;;;;;47.73;44.13;;;;;;;14.50;100.00;101526.86;1971922;73;33026;-76
2021/08/02 03:28:59;;;;;;;47.30;43.73;;;;;;;14.40;100.00;101540.11;1971867;73;33001;-77
2021/08/02 03:34:29;;;;;;;46.63;42.90;;;;;;;14.40;100.00;101545.14;1971887;73;32918;-76
2021/08/02 03:39:57;;;;;;;46.03;42.43;;;;;;;14.33;100.00;101540.44;1971919;73;33053;-76
2021/08/02 03:45:23;;;;;;;48.70;44.70;;;;;;;14.45;100.00;101550.69;1971878;73;32908;-73
2021/08/02 03:50:50;;;;;;;46.97;43.17;;;;;;;14.40;100.00;101551.30;1971856;73;32937;-76
2021/08/02 03:56:17;;;;;;;47.23;43.73;;;;;;;14.49;100.00;101548.98;1972088;73;33471;-76
2021/08/02 04:01:44;;;;;;;47.13;43.20;;;;;;;14.55;100.00;101556.16;1899711;73;39823;-79
2021/08/02 04:07:09;;;;;;;47.60;43.83;;;;;;;14.72;100.00;101561.89;1972101;73;33500;-75
2021/08/02 04:12:34;;;;;;;50.37;46.47;;;;;;;14.55;100.00;101565.95;1972128;73;33382;-76
2021/08/02 04:17:59;;;;;;;49.30;45.40;;;;;;;14.64;100.00;101572.30;1971865;73;32938;-76
2021/08/02 04:23:24;;;;;;;47.07;43.47;;;;;;;14.65;100.00;101578.17;1971885;73;32978;-73
2021/08/02 04:28:49;;;;;;;50.03;46.33;;;;;;;14.70;100.00;101571.97;1971846;73;33030;-74
2021/08/02 04:34:14;;;;;;;48.53;44.63;;;;;;;14.48;100.00;101571.63;1971962;73;32994;-73
2021/08/02 04:39:39;;;;;;;50.37;46.30;;;;;;;14.68;100.00;101571.41;1971873;73;32884;-73
2021/08/02 04:45:05;;;;;;;50.10;46.20;;;;;;;14.72;100.00;101572.48;1971932;73;33025;-74
2021/08/02 04:50:31;;;;;;;50.27;46.50;;;;;;;14.71;100.00;101572.25;1971939;73;32920;-75
2021/08/02 04:55:58;;;;;;;48.83;45.13;;;;;;;14.72;100.00;101564.10;1971883;73;33000;-76
2021/08/02 05:01:22;;;;;;;48.57;44.87;;;;;;;14.73;100.00;101566.34;1971870;73;32987;-76
2021/08/02 05:06:47;;;;;;;54.27;50.37;;;;;;;14.80;100.00;101569.64;1972118;72;33547;-74
2021/08/02 05:12:13;;;;;;;51.07;47.23;;;;;;;14.67;100.00;101558.59;1972163;73;32878;-76
2021/08/02 05:17:38;;;;;;;53.00;49.00;;;;;;;14.74;100.00;101551.23;1971924;72;32983;-73
2021/08/02 05:23:05;;;;;;;51.63;47.93;;;;;;;14.87;100.00;101559.76;2062819;69;32751;-73
2021/08/02 05:28:29;;;;;;;54.93;51.13;;;;;;;14.85;100.00;101566.77;1971888;73;32914;-76
2021/08/02 05:33:54;;;;;;;51.83;48.13;;;;;;;15.01;100.00;101563.52;1971897;73;33029;-75
2021/08/02 05:39:18;;;;;;;54.67;50.80;;;;;;;15.04;100.00;101564.88;1971885;73;32965;-73
2021/08/02 05:44:43;;;;;;;53.33;49.63;;;;;;;14.97;100.00;101572.80;1971865;73;32921;-76
2021/08/02 05:50:09;;;;;;;51.17;47.53;;;;;;;15.31;100.00;101581.07;1972071;73;33393;-73
2021/08/02 05:55:33;;;;;;;52.37;48.67;;;;;;;15.24;100.00;101582.81;1971827;73;32973;-72
2021/08/02 06:00:58;;;;;;;53.93;50.23;;;;;;;15.24;100.00;101584.78;1971861;73;33043;-74
2021/08/02 06:06:24;;;;;;;54.07;50.10;;;;;;;15.27;100.00;101577.20;1971915;73;32960;-75
2021/08/02 06:11:50;;;;;;;49.17;45.47;;;;;;;15.31;100.00;101574.07;1971858;73;32907;-75
2021/08/02 06:17:14;;;;;;;49.57;45.70;;;;;;;15.37;100.00;101572.86;1972127;73;33048;-75
2021/08/02 06:22:40;;;;;;;47.03;43.13;;;;;;;15.50;100.00;101574.95;1960080;71;33057;-76
2021/08/02 06:28:05;;;;;;;46.97;43.37;;;;;;;15.68;100.00;101573.31;1971858;73;32999;-76
2021/08/02 06:33:30;;;;;;;44.53;41.03;;;;;;;15.75;100.00;101570.95;1971900;73;32893;-75
2021/08/02 06:38:55;;;;;;;46.87;43.17;;;;;;;15.62;100.00;101574.51;1971963;73;32924;-76
2021/08/02 06:44:19;;;;;;;46.53;42.73;;;;;;;15.51;100.00;101580.83;1971918;73;33040;-75
2021/08/02 06:49:45;;;;;;;46.77;43.17;;;;;;;15.46;100.00;101584.50;1972061;73;33458;-76
2021/08/02 06:55:11;;;;;;;46.07;42.50;;;;;;;15.62;100.00;101586.55;1971836;72;32967;-75
2021/08/02 07:00:36;;;;;;;46.13;42.23;;;;;;;15.75;100.00;101581.59;1972070;73;33501;-73
2021/08/02 07:06:01;;;;;;;46.07;42.40;;;;;;;15.94;100.00;101585.25;1971924;73;33000;-77
2021/08/02 07:11:26;;;;;;;47.30;43.40;;;;;;;15.95;100.00;101580.48;1972326;73;33425;-73
2021/08/02 07:16:51;;;;;;;46.30;42.70;;;;;;;16.13;100.00;101590.83;1972135;72;33047;-75
2021/08/02 07:22:16;;;;;;;44.33;40.50;;;;;;;16.25;100.00;101583.38;1962025;71;33015;-73
2021/08/02 07:27:41;;;;;;;40.53;37.13;;;;;;;16.33;100.00;101575.09;1972058;73;33405;-73
2021/08/02 07:33:07;;;;;;;43.43;40.03;;;;;;;16.58;100.00;101573.84;1971848;73;32961;-74
2021/08/02 07:38:32;;;;;;;41.73;38.43;;;;;;;16.76;100.00;101576.33;1972076;73;30958;-73
2021/08/02 07:43:56;;;;;;;43.57;40.27;;;;;;;16.82;100.00;101572.27;1972116;73;33594;-73
2021/08/02 07:49:21;;;;;;;44.33;40.87;;;;;;;16.87;100.00;101568.53;1971895;73;31036;-75
2021/08/02 07:54:46;;;;;;;42.83;39.50;;;;;;;16.95;100.00;101565.00;1972109;73;31469;-74
2021/08/02 08:00:16;;;;;;;41.97;38.53;;;;;;;17.20;100.00;101554.69;1971876;73;31021;-75
2021/08/02 08:05:41;;;;;;;41.47;38.43;;;;;;;17.15;100.00;101565.45;1972163;73;33467;-75
2021/08/02 08:11:09;;;;;;;40.57;37.47;;;;;;;17.36;100.00;101555.19;1971936;73;32981;-75
2021/08/02 08:16:34;;;;;;;38.20;35.27;;;;;;;17.62;100.00;101550.14;1971906;73;30956;-74
2021/08/02 08:21:58;;;;;;;36.27;33.67;;;;;;;18.05;100.00;101552.51;1972036;73;33493;-74
2021/08/02 08:27:23;;;;;;;36.40;33.90;;;;;;;18.47;100.00;101535.67;1972059;73;33521;-75
2021/08/02 08:32:48;;;;;;;34.63;32.37;;;;;;;18.40;100.00;101529.69;1972149;73;31489;-74
2021/08/02 08:38:13;;;;;;;34.63;32.43;;;;;;;18.36;100.00;101526.66;1971920;73;30915;-72
2021/08/02 08:43:38;;;;;;;35.80;33.50;;;;;;;18.44;100.00;101526.48;1971941;73;30986;-74
2021/08/02 08:49:03;;;;;;;35.10;33.00;;;;;;;18.41;100.00;101531.32;1971935;73;30932;-73
2021/08/02 08:54:33;;;;;;;30.67;28.97;;;;;;;18.34;100.00;101528.98;1971884;73;30939;-75
2021/08/02 08:59:57;;;;;;;32.83;30.93;;;;;;;18.15;100.00;101530.57;1971899;73;31021;-74
2021/08/02 09:05:24;;;;;;;30.20;28.60;;;;;;;18.14;100.00;101533.72;1971917;73;30971;-75
2021/08/02 09:11:00;;;;;;;28.93;27.43;;;;;;;18.05;100.00;101542.66;1971902;72;30996;-74
2021/08/02 09:16:27;;;;;;;31.23;29.43;;;;;;;18.18;100.00;101536.16;1971889;73;31005;-74
2021/08/02 09:21:54;;;;;;;33.90;31.90;;;;;;;18.42;100.00;101539.45;1953771;73;30962;-73
2021/08/02 09:27:27;;;;;;;29.27;27.57;;;;;;;18.57;100.00;101529.79;1971877;73;31068;-74
2021/08/02 09:32:56;;;;;;;26.50;25.00;;;;;;;18.81;100.00;101537.30;1972173;73;30944;-75
2021/08/02 09:38:27;;;;;;;29.50;27.90;;;;;;;18.80;100.00;101537.61;1971882;73;31050;-75
2021/08/02 09:44:21;;;;;;;32.13;30.33;;;;;;;19.00;100.00;101539.84;2016072;71;30927;-74
2021/08/02 09:49:51;;;;;;;31.07;29.37;;;;;;;18.99;100.00;101528.36;1972025;73;30933;-73
2021/08/02 09:55:46;;;;;;;32.60;30.70;;;;;;;19.76;100.00;101521.52;2016239;71;30867;-74
2021/08/02 10:01:14;;;;;;;26.70;25.20;;;;;;;19.65;100.00;101517.34;1972040;73;31017;-74
2021/08/02 10:06:40;;;;;;;27.77;26.30;;;;;;;19.63;100.00;101510.39;1972144;73;31447;-75
2021/08/02 10:12:09;;;;;;;27.83;26.47;;;;;;;19.78;100.00;101511.30;1971917;73;30983;-75
2021/08/02 10:17:36;;;;;;;29.17;27.77;;;;;;;19.98;100.00;101508.64;1971904;73;30949;-73
2021/08/02 10:23:27;;;;;;;33.10;31.30;;;;;;;19.87;100.00;101507.91;1972115;73;30937;-73
2021/08/02 10:28:56;;;;;;;30.73;29.13;;;;;;;19.78;100.00;101504.25;1972152;73;31443;-73
2021/08/02 10:34:23;;;;;;;29.60;28.20;;;;;;;19.42;100.00;101498.91;1971889;73;31030;-75
2021/08/02 10:40:18;;;;;;;33.23;31.43;;;;;;;19.57;100.00;101504.66;1972038;72;30948;-75
2021/08/02 10:45:47;;;;;;;31.37;29.67;;;;;;;19.54;100.00;101510.38;1972190;73;30945;-73
2021/08/02 10:51:21;;;;;;;26.90;25.60;;;;;;;19.53;100.00;101516.59;1971957;73;30974;-73
2021/08/02 10:56:56;;;;;;;24.73;23.53;;;;;;;19.57;100.00;101514.52;1971933;73;30976;-75
2021/08/02 11:02:23;;;;;;;14.73;14.20;;;;;;;19.68;100.00;101508.22;1971880;73;31147;-73
2021/08/02 11:07:49;;;;;;;14.50;13.80;;;;;;;19.82;100.00;101511.72;1972142;73;33454;-73
2021/08/02 11:13:16;;;;;;;13.23;12.57;;;;;;;20.28;100.00;101516.66;1971944;73;30979;-75
2021/08/02 11:21:30;;;;;;;18.27;17.40;;;;;;;19.92;100.00;101509.98;1999638;71;30735;-75
2021/08/02 11:24:02;;;;;;;15.20;14.50;;;;;;;20.44;100.00;101520.66;1932717;74;24210;-74
2021/08/02 11:26:32;;;;;;;19.03;17.73;;;;;;;20.64;100.00;101516.86;1932095;74;24236;-74
2021/08/02 11:29:02;;;;;;;13.00;12.30;;;;;;;20.77;100.00;101521.47;1932770;73;24202;-74
2021/08/02 11:31:35;;;;;;;12.60;12.00;;;;;;;20.43;100.00;101513.35;1932734;73;24191;-75
2021/08/02 11:34:06;;;;;;;13.67;12.87;;;;;;;20.30;100.00;101516.36;1932801;73;24133;-72
2021/08/02 11:36:37;;;;;;;12.77;12.27;;;;;;;20.41;100.00;101521.31;1932750;73;24131;-74
2021/08/02 11:39:16;;;;;;;13.07;12.47;;;;;;;20.45;100.00;101515.84;1932718;73;24201;-75
2021/08/02 11:41:49;;;;;;;13.07;12.47;;;;;;;20.50;100.00;101519.05;1932907;73;24140;-76
2021/08/02 11:44:19;;;;;;;13.47;12.87;;;;;;;20.27;100.00;101522.08;1931509;74;24571;-76
2021/08/02 11:46:50;;;;;;;12.30;11.70;;;;;;;20.41;100.00;101516.24;1932712;74;24182;-73
2021/08/02 11:49:21;;;;;;;11.47;10.97;;;;;;;20.31;100.00;101519.44;1932835;73;26769;-73
2021/08/02 11:51:53;;;;;;;12.07;11.57;;;;;;;20.37;100.00;101518.08;1932762;73;24148;-73
2021/08/02 11:54:25;;;;;;;12.70;12.10;;;;;;;20.52;100.00;101510.51;1932796;73;24127;-74
2021/08/02 11:56:55;;;;;;;12.33;11.83;;;;;;;20.60;100.00;101512.47;1932661;73;24187;-74
2021/08/02 11:59:29;;;;;;;12.43;11.77;;;;;;;20.73;100.00;101507.20;1932584;73;24151;-75
2021/08/02 12:02:00;;;;;;;11.37;10.97;;;;;;;20.60;100.00;101514.46;1932661;73;24191;-73
2021/08/02 12:07:28;;;;;;;12.03;11.43;;;;;;;20.51;100.00;101511.66;1972190;73;31478;-74
2021/08/02 12:13:01;;;;;;;14.35;13.60;;;;;;;20.62;100.00;101503.09;1972240;73;31458;-73
2021/08/02 12:18:28;;;;;;;14.23;13.40;;;;;;;20.73;100.00;101513.42;1971894;73;31026;-78
2021/08/02 12:24:07;;;;;;;15.93;14.73;;;;;;;20.55;100.00;101508.41;1971968;73;31038;-74
2021/08/02 12:29:33;;;;;;;13.62;13.03;;;;;;;20.67;100.00;101507.13;1972085;73;31459;-78
2021/08/02 12:34:58;;;;;;;13.53;12.73;;;;;;;20.27;100.00;101509.95;1972029;73;31060;-75
2021/08/02 12:40:23;;;;;;;15.10;14.23;;;;;;;20.18;100.00;101502.91;1972178;73;31456;-74
2021/08/02 12:45:50;;;;;;;15.23;14.43;;;;;;;19.97;100.00;101512.64;1971920;73;30959;-74
2021/08/02 12:51:16;;;;;;;14.17;13.47;;;;;;;19.98;100.00;101508.64;1971941;73;30993;-73
2021/08/02 12:56:43;;;;;;;13.97;13.23;;;;;;;19.94;100.00;101513.87;1972195;73;31027;-75
2021/08/02 13:02:08;;;;;;;13.43;12.83;;;;;;;19.85;100.00;101512.45;1971897;73;31059;-74
2021/08/02 13:07:33;;;;;;;13.67;12.97;;;;;;;20.09;100.00;101506.90;1972142;73;31458;-75
2021/08/02 13:12:58;;;;;;;13.70;13.10;;;;;;;19.88;100.00;101502.52;1972118;73;31074;-75
2021/08/02 13:18:23;;;;;;;15.30;14.50;;;;;;;19.85;100.00;101495.54;1972192;73;31340;-74
2021/08/02 13:29:40;;;;;;;13.90;13.30;;;;;;;19.72;100.00;101485.86;1971974;72;33087;-76
2021/08/02 13:35:07;;;;;;;13.37;12.67;;;;;;;19.73;100.00;101477.05;1971882;73;30978;-77
2021/08/02 13:40:32;;;;;;;14.00;13.30;;;;;;;19.76;100.00;101481.22;1972211;73;31543;-74
2021/08/02 13:45:56;;;;;;;15.90;15.20;;;;;;;19.43;100.00;101480.27;1952108;73;31043;-75
2021/08/02 13:51:28;;;;;;;17.47;16.67;;;;;;;19.47;100.00;101476.20;1972149;73;31038;-77
2021/08/02 13:56:52;;;;;;;21.20;20.10;;;;;;;19.38;100.00;101479.59;1971903;73;31553;-77
2021/08/02 14:02:17;;;;;;;26.50;24.80;;;;;;;19.40;100.00;101487.12;1972071;73;31483;-77
2021/08/02 14:07:44;;;;;;;24.03;22.70;;;;;;;20.33;100.00;101471.95;1972100;73;31011;-77
2021/08/02 14:13:10;;;;;;;25.83;24.73;;;;;;;20.38;100.00;101452.02;1971995;73;31050;-77
2021/08/02 14:18:48;;;;;;;26.50;25.20;;;;;;;19.73;100.00;101462.95;1972125;73;31535;-77
2021/08/02 14:24:33;;;;;;;29.20;27.70;;;;;;;19.83;100.00;101459.81;2016047;71;30869;-77
2021/08/02 14:30:01;;;;;;;24.73;23.47;;;;;;;19.83;100.00;101457.00;1971893;73;30976;-78
2021/08/02 14:35:29;;;;;;;25.17;23.93;;;;;;;19.97;100.00;101456.25;1972113;73;31518;-76
2021/08/02 14:40:57;;;;;;;28.37;26.87;;;;;;;19.96;100.00;101444.70;1971894;73;31035;-75
2021/08/02 14:46:26;;;;;;;26.40;25.00;;;;;;;20.22;100.00;101450.30;1972129;73;31063;-74
2021/08/02 14:51:55;;;;;;;21.97;20.87;;;;;;;20.42;100.00;101445.36;1972059;73;31055;-74
2021/08/02 14:57:20;;;;;;;22.20;21.10;;;;;;;20.25;100.00;101431.28;1972170;73;31477;-73
2021/08/02 15:02:47;;;;;;;22.47;21.20;;;;;;;20.00;100.00;101430.19;1971963;73;30982;-78
2021/08/02 15:08:13;;;;;;;21.17;20.17;;;;;;;20.05;100.00;101427.77;1972151;73;31439;-75
2021/08/02 15:13:37;;;;;;;18.37;17.40;;;;;;;20.41;100.00;101427.34;1972126;73;31055;-76
2021/08/02 15:19:07;;;;;;;17.50;16.70;;;;;;;20.50;100.00;101425.91;1972136;73;31453;-80
2021/08/02 15:24:35;;;;;;;16.80;16.10;;;;;;;20.44;100.00;101423.87;1972150;73;31153;-77
2021/08/02 15:30:05;;;;;;;17.33;16.43;;;;;;;21.00;100.00;101428.25;1972002;73;30982;-77
2021/08/02 15:35:32;;;;;;;17.80;16.90;;;;;;;20.78;100.00;101434.18;1972161;73;31506;-79
2021/08/02 15:40:58;;;;;;;21.50;20.50;;;;;;;20.62;100.00;101430.28;1957240;73;31040;-77
2021/08/02 15:46:25;;;;;;;20.30;19.03;;;;;;;20.41;100.00;101423.95;1972178;72;30961;-78
2021/08/02 15:51:53;;;;;;;22.83;21.63;;;;;;;20.22;100.00;101424.08;1972002;73;31038;-76
2021/08/02 15:57:20;;;;;;;18.37;17.50;;;;;;;20.59;100.00;101419.06;1971966;73;31050;-76
2021/08/02 15:59:53;;;;;;;20.17;19.07;;;;;;;20.30;100.00;101422.67;1934862;74;24198;-77
2021/08/02 16:05:31;;;;;;;20.27;19.37;;;;;;;20.61;100.00;101420.98;1972034;73;30963;-74
2021/08/02 16:11:02;;;;;;;19.80;18.70;;;;;;;20.90;100.00;101408.28;1972060;73;31057;-73
2021/08/02 16:16:35;;;;;;;18.40;17.27;;;;;;;19.79;100.00;101426.41;1972004;73;31573;-74
2021/08/02 16:22:05;;;;;;;19.97;18.97;;;;;;;19.50;100.00;101424.84;1971901;73;31141;-77
2021/08/02 16:27:30;;;;;;;20.70;19.80;;;;;;;19.39;100.00;101420.07;1971869;73;30967;-77
2021/08/02 16:32:56;;;;;;;21.90;20.80;;;;;;;19.17;100.00;101422.23;1972049;73;33472;-76
2021/08/02 16:38:20;;;;;;;26.40;25.10;;;;;;;19.20;100.00;101420.16;1972138;73;31528;-75
2021/08/02 16:43:51;;;;;;;27.13;25.70;;;;;;;19.03;100.00;101411.94;1971883;73;31046;-75
2021/08/02 16:49:16;;;;;;;29.37;27.87;;;;;;;18.90;100.00;101410.08;1972040;73;31495;-76
2021/08/02 16:54:41;;;;;;;27.23;25.83;;;;;;;18.87;100.00;101405.08;1972031;73;31018;-74
2021/08/02 17:00:09;;;;;;;25.60;24.23;;;;;;;19.05;100.00;101401.16;1972101;73;30987;-75
2021/08/02 17:05:33;;;;;;;24.90;23.20;;;;;;;19.21;100.00;101407.73;1972047;73;31468;-73
2021/08/02 17:10:58;;;;;;;19.70;18.83;;;;;;;19.35;100.00;101403.58;1971898;73;30962;-76
2021/08/02 17:16:42;;;;;;;18.87;17.87;;;;;;;19.28;100.00;101403.27;2016234;71;30907;-74
2021/08/02 17:22:07;;;;;;;19.03;17.83;;;;;;;19.18;100.00;101402.73;1972092;73;31024;-76
2021/08/02 17:27:32;;;;;;;16.33;15.57;;;;;;;19.06;100.00;101398.59;1971899;73;31038;-76
2021/08/02 17:32:56;;;;;;;15.60;14.80;;;;;;;18.98;100.00;101396.59;1971928;73;31160;-75
2021/08/02 17:38:23;;;;;;;16.50;15.67;;;;;;;19.30;100.00;101393.88;1972148;73;31521;-76
2021/08/02 17:43:48;;;;;;;17.40;16.60;;;;;;;19.07;100.00;101393.22;1972068;73;30999;-75
2021/08/02 17:49:14;;;;;;;17.93;17.03;;;;;;;18.92;100.00;101394.25;1971909;73;30979;-75
2021/08/02 17:54:41;;;;;;;16.47;15.67;;;;;;;18.74;100.00;101393.98;1971910;73;31460;-80
2021/08/02 18:00:09;;;;;;;14.73;14.03;;;;;;;18.60;100.00;101387.90;1971890;73;31006;-76
2021/08/02 18:05:33;;;;;;;13.80;13.20;;;;;;;18.56;100.00;101393.92;1971885;72;31033;-77
2021/08/02 18:10:58;;;;;;;13.63;12.83;;;;;;;18.60;100.00;101393.52;1972121;73;31456;-77
2021/08/02 18:16:22;;;;;;;14.10;13.33;;;;;;;18.57;100.00;101400.36;1972116;73;31596;-77
2021/08/02 18:24:38;;;;;;;13.53;12.93;;;;;;;18.40;100.00;101390.44;2061156;69;30573;-78
2021/08/02 18:27:11;;;;;;;14.07;13.37;;;;;;;18.30;100.00;101394.94;1950642;73;24136;-77
2021/08/02 18:29:42;;;;;;;13.47;12.87;;;;;;;18.39;100.00;101400.86;2030608;71;24156;-74
2021/08/02 18:32:12;;;;;;;14.70;14.10;;;;;;;18.40;100.00;101394.66;2030671;71;24257;-74
2021/08/02 18:34:43;;;;;;;14.87;14.17;;;;;;;18.37;100.00;101402.32;2030745;71;24100;-75
2021/08/02 18:37:13;;;;;;;14.13;13.53;;;;;;;18.37;100.00;101398.94;2030662;71;24108;-77
2021/08/02 18:39:44;;;;;;;16.03;15.33;;;;;;;18.33;100.00;101406.94;2030614;71;24117;-77
2021/08/02 18:42:14;;;;;;;17.93;17.03;;;;;;;18.21;100.00;101406.14;2030604;71;24567;-80
2021/08/02 18:44:44;;;;;;;17.63;16.67;;;;;;;18.14;100.00;101409.40;2030700;71;24101;-78
2021/08/02 18:47:14;;;;;;;16.97;16.17;;;;;;;18.10;100.00;101415.98;2030809;70;24129;-81
2021/08/02 18:49:44;;;;;;;15.13;14.53;;;;;;;17.99;100.00;101409.83;2030644;71;24567;-79
2021/08/02 18:52:14;;;;;;;15.00;14.17;;;;;;;18.12;100.00;101410.89;2030623;71;24190;-78
2021/08/02 18:54:46;;;;;;;24.13;22.93;;;;;;;18.09;100.00;101420.81;2030857;71;24136;-84
2021/08/02 18:57:16;;;;;;;19.90;19.00;;;;;;;17.92;100.00;101416.48;2030914;70;24114;-78
2021/08/02 18:59:46;;;;;;;19.93;19.03;;;;;;;17.95;100.00;101417.23;2030751;70;24241;-78
2021/08/02 19:02:17;;;;;;;22.17;21.10;;;;;;;17.99;100.00;101415.44;2030852;70;24128;-77
2021/08/02 19:04:47;;;;;;;24.37;23.27;;;;;;;17.95;100.00;101415.00;2030897;71;24125;-85
2021/08/02 19:07:17;;;;;;;24.67;23.57;;;;;;;17.86;100.00;101414.94;2030793;71;24640;-77
2021/08/02 19:09:49;;;;;;;24.23;23.13;;;;;;;17.91;100.00;101415.39;2030697;71;24174;-78
2021/08/02 19:12:22;;;;;;;27.30;25.90;;;;;;;17.82;100.00;101415.91;2030737;71;24603;-79
2021/08/02 19:14:54;;;;;;;32.40;30.50;;;;;;;17.84;100.00;101413.02;2031022;71;24152;-78
2021/08/02 19:17:27;;;;;;;32.40;30.20;;;;;;;17.77;100.00;101409.84;2030764;71;24136;-79
2021/08/02 19:19:59;;;;;;;33.80;31.60;;;;;;;17.77;100.00;101412.64;1950883;73;24206;-78
2021/08/02 19:25:28;;;;;;;39.97;37.00;;;;;;;17.34;100.00;101421.27;1972154;73;31048;-77
2021/08/02 19:30:53;;;;;;;40.87;38.07;;;;;;;17.43;100.00;101423.02;1972065;73;30974;-80
2021/08/02 19:36:21;;;;;;;39.83;37.03;;;;;;;17.33;100.00;101422.44;1941351;74;31092;-75
2021/08/02 19:41:50;;;;;;;42.30;39.00;;;;;;;17.08;100.00;101419.62;1972174;73;31482;-74
2021/08/02 19:44:25;;;;;;;41.53;38.37;;;;;;;16.85;100.00;101431.36;1934779;73;24141;-75
2021/08/02 19:47:00;;;;;;;44.17;41.07;;;;;;;16.75;100.00;101432.41;1934784;74;24136;-76
2021/08/02 19:52:29;;;;;;;42.03;38.83;;;;;;;16.57;100.00;101426.86;1972483;73;33409;-78
2021/08/02 19:58:18;;;;;;;41.73;38.50;;;;;;;16.64;100.00;101427.33;2016185;71;31349;-77
2021/08/02 20:03:45;;;;;;;42.63;39.33;;;;;;;16.60;100.00;101430.49;1972118;73;30958;-81
2021/08/02 20:09:20;;;;;;;43.77;40.37;;;;;;;16.51;100.00;101434.56;1971945;73;32933;-76
2021/08/02 20:15:08;;;;;;;42.73;39.27;;;;;;;16.52;100.00;101435.37;2016230;71;30966;-77
2021/08/02 20:20:37;;;;;;;42.60;39.10;;;;;;;16.51;100.00;101438.77;1970938;71;31034;-74
2021/08/02 20:26:07;;;;;;;45.03;41.37;;;;;;;16.50;100.00;101437.66;1971909;73;33041;-73
2021/08/02 20:31:40;;;;;;;42.13;38.73;;;;;;;16.44;100.00;101436.92;1971980;72;31092;-74
2021/08/02 20:37:09;;;;;;;42.67;39.37;;;;;;;16.47;100.00;101441.94;1971995;73;31046;-74
2021/08/02 20:42:36;;;;;;;39.90;36.40;;;;;;;16.59;100.00;101437.23;1971908;73;32919;-73
2021/08/02 20:48:02;;;;;;;41.80;38.40;;;;;;;16.64;100.00;101441.34;1972132;72;33415;-74
2021/08/02 20:53:31;;;;;;;42.17;38.67;;;;;;;16.60;100.00;101447.33;1972164;73;31489;-71
2021/08/02 20:58:57;;;;;;;43.13;39.57;;;;;;;16.52;100.00;101447.98;1972114;73;30961;-73
2021/08/02 21:04:29;;;;;;;41.20;37.80;;;;;;;16.66;100.00;101445.49;1972164;73;31517;-75
2021/08/02 21:12:55;;;;;;;43.47;40.07;;;;;;;16.69;100.00;101451.03;2061328;69;33105;-75
2021/08/02 21:18:29;;;;;;;43.73;40.23;;;;;;;16.63;100.00;101457.34;1971922;72;33008;-75
2021/08/02 21:23:58;;;;;;;41.63;38.13;;;;;;;16.65;100.00;101463.45;1972072;73;33479;-74
2021/08/02 21:29:26;;;;;;;42.57;38.97;;;;;;;16.53;100.00;101454.70;1971915;73;31057;-74
2021/08/02 21:34:51;;;;;;;45.90;42.37;;;;;;;16.51;100.00;101451.39;1971882;73;32993;-74
2021/08/02 21:40:22;;;;;;;42.00;38.50;;;;;;;16.44;100.00;101452.91;1964321;73;31013;-77
2021/08/02 21:45:47;;;;;;;44.70;41.30;;;;;;;16.44;100.00;101448.71;1972152;73;32929;-77
2021/08/02 21:51:13;;;;;;;42.17;38.77;;;;;;;16.42;100.00;101440.63;1972204;73;31509;-74
2021/08/02 21:56:39;;;;;;;42.10;38.70;;;;;;;16.40;100.00;101446.53;1971914;73;33079;-76
2021/08/02 22:02:04;;;;;;;41.73;38.33;;;;;;;16.35;100.00;101445.22;1971857;73;33400;-76
2021/08/02 22:07:22;;;;;;;45.03;41.63;;;;;;;16.39;100.00;101439.82;1977896;72;32844;-72
2021/08/02 22:12:48;;;;;;;44.17;40.67;;;;;;;16.38;100.00;101449.40;1971964;73;31040;-76
2021/08/02 22:18:13;;;;;;;43.93;40.33;;;;;;;16.14;100.00;101454.31;1971891;73;31119;-72